Time;durP1;ratioP1;P1;durP2;ratioP2;P2;SDS_P1;SDS_P2;PMS_P1;PMS_P2;Temp;Humidity;BMP_temperature;BMP_pressure;BME280_temperature;BME280_humidity;BME280_pressure;Samples;Min_cycle;Max_cycle;Signal;HPM_P1;HPM_P2
2022/01/18 00:01:27;;;;;;;23.02;6.63;;;;;;;4.31;100.00;103703.50;5213811;28;20509;-73
2022/01/18 00:04:00;;;;;;;24.95;6.88;;;;;;;4.26;100.00;103705.28;5213507;28;20418;-72
2022/01/18 00:06:31;;;;;;;25.50;6.43;;;;;;;4.36;100.00;103709.50;5213429;28;20048;-72
2022/01/18 00:09:02;;;;;;;16.20;6.22;;;;;;;4.36;100.00;103712.94;5213483;28;20440;-73
2022/01/18 00:11:42;;;;;;;22.20;5.70;;;;;;;4.32;100.00;103718.22;5214600;28;20032;-73
2022/01/18 00:14:22;;;;;;;19.67;6.38;;;;;;;4.38;100.00;103716.38;5214710;28;20045;-72
2022/01/18 00:17:04;;;;;;;19.27;5.70;;;;;;;4.45;100.00;103717.16;5214377;28;20050;-72
2022/01/18 00:19:40;;;;;;;23.10;8.00;;;;;;;4.49;100.00;103716.22;5212851;28;20025;-72
2022/01/18 00:22:13;;;;;;;26.77;8.15;;;;;;;4.55;100.00;103721.34;5212773;28;20030;-72
2022/01/18 00:24:44;;;;;;;26.52;8.15;;;;;;;4.62;100.00;103715.22;5214024;28;20032;-72
2022/01/18 00:27:17;;;;;;;24.85;7.40;;;;;;;4.57;100.00;103714.38;5214156;28;20406;-72
2022/01/18 00:30:04;;;;;;;25.92;8.02;;;;;;;4.67;100.00;103719.47;5214567;28;20044;-72
2022/01/18 00:35:07;;;;;;;30.50;9.65;;;;;;;4.72;100.00;103728.91;5214781;28;20045;-72
2022/01/18 00:37:49;;;;;;;33.30;11.30;;;;;;;4.78;100.00;103730.56;5212424;28;20172;-72
2022/01/18 00:40:21;;;;;;;34.00;11.73;;;;;;;4.81;100.00;103740.91;5213951;28;20042;-72
2022/01/18 00:42:52;;;;;;;33.88;12.18;;;;;;;4.84;100.00;103733.06;5214230;28;20066;-72
2022/01/18 00:45:24;;;;;;;33.60;11.88;;;;;;;4.88;100.00;103738.19;5213451;28;20033;-72
2022/01/18 00:47:56;;;;;;;25.23;10.27;;;;;;;4.83;100.00;103746.94;5211271;28;20057;-72
2022/01/18 00:50:31;;;;;;;22.52;9.70;;;;;;;4.82;100.00;103745.22;5213469;28;20022;-72
2022/01/18 00:53:08;;;;;;;21.60;8.60;;;;;;;4.77;100.00;103736.63;5213608;28;20025;-72
2022/01/18 00:55:50;;;;;;;31.15;10.27;;;;;;;4.86;100.00;103752.09;5212240;28;20447;-72
2022/01/18 00:58:21;;;;;;;21.05;8.32;;;;;;;4.91;100.00;103758.06;5212968;28;20030;-72
2022/01/18 01:00:53;;;;;;;26.23;8.63;;;;;;;4.94;100.00;103754.59;5213223;28;20100;-72
2022/01/18 01:03:24;;;;;;;21.75;7.95;;;;;;;4.96;100.00;103745.88;5213773;28;20550;-72
2022/01/18 01:05:55;;;;;;;26.27;7.93;;;;;;;4.99;100.00;103748.44;5213206;28;20034;-72
2022/01/18 01:08:27;;;;;;;23.60;7.80;;;;;;;5.00;100.00;103755.38;5213632;28;20043;-72
2022/01/18 01:10:58;;;;;;;30.85;8.07;;;;;;;4.95;100.00;103749.34;5213720;28;20124;-72
2022/01/18 01:13:31;;;;;;;23.30;7.60;;;;;;;5.00;100.00;103746.69;5213417;28;20120;-72
2022/01/18 01:33:28;;;;;;;22.92;7.82;;;;;;;5.16;100.00;103737.78;5213727;28;20069;-72
2022/01/18 01:46:44;;;;;;;27.40;8.43;;;;;;;5.24;100.00;103732.47;5213410;28;20030;-72
2022/01/18 01:49:15;;;;;;;26.73;8.25;;;;;;;5.29;100.00;103735.84;5212509;28;20025;-72
2022/01/18 01:51:48;;;;;;;24.15;8.77;;;;;;;5.29;100.00;103731.50;5212730;28;20112;-72
2022/01/18 01:54:19;;;;;;;29.65;9.57;;;;;;;5.33;100.00;103729.72;5213365;28;20084;-72
2022/01/18 01:56:51;;;;;;;33.92;9.10;;;;;;;5.29;100.00;103730.66;5211441;28;20039;-73
2022/01/18 01:59:22;;;;;;;32.88;8.63;;;;;;;5.30;100.00;103734.97;5212736;28;20564;-72
2022/01/18 02:01:54;;;;;;;39.20;9.75;;;;;;;5.27;100.00;103735.88;5211160;28;20562;-72
2022/01/18 02:04:25;;;;;;;35.53;9.00;;;;;;;5.31;100.00;103731.50;5213208;28;20030;-72
2022/01/18 02:06:57;;;;;;;32.80;10.02;;;;;;;5.36;100.00;103740.06;5210410;28;20033;-72
2022/01/18 02:09:28;;;;;;;29.90;9.77;;;;;;;5.37;100.00;103733.97;5213545;28;20138;-72
2022/01/18 02:12:00;;;;;;;35.92;10.85;;;;;;;5.42;100.00;103741.69;5211762;28;20485;-73
2022/01/18 02:14:33;;;;;;;26.83;10.52;;;;;;;5.45;100.00;103739.03;5213081;28;20133;-73
2022/01/18 02:22:44;;;;;;;34.50;10.70;;;;;;;5.49;100.00;103743.31;5212776;28;20121;-72
2022/01/18 02:25:15;;;;;;;32.58;9.85;;;;;;;5.47;100.00;103740.75;5213216;28;20136;-72
2022/01/18 02:27:47;;;;;;;35.95;10.55;;;;;;;5.49;100.00;103745.91;5212693;28;20026;-73
2022/01/18 02:30:18;;;;;;;29.08;9.95;;;;;;;5.50;100.00;103735.50;5212374;28;20036;-72
2022/01/18 02:32:49;;;;;;;27.25;9.52;;;;;;;5.52;100.00;103733.72;5211789;28;20017;-73
2022/01/18 02:35:21;;;;;;;31.35;9.88;;;;;;;5.53;100.00;103740.66;5211389;28;20076;-72
2022/01/18 02:37:53;;;;;;;26.60;9.80;;;;;;;5.51;100.00;103733.75;5212700;28;20028;-72
2022/01/18 02:40:25;;;;;;;30.10;10.35;;;;;;;5.52;100.00;103723.31;5210880;28;20034;-72
2022/01/18 02:43:00;;;;;;;29.05;10.10;;;;;;;5.59;100.00;103722.31;5213936;28;20490;-72
2022/01/18 02:45:31;;;;;;;36.22;11.52;;;;;;;5.58;100.00;103720.63;5216747;28;20026;-72
2022/01/18 02:48:03;;;;;;;29.23;10.13;;;;;;;5.58;100.00;103720.63;5216211;28;20057;-72
2022/01/18 02:50:34;;;;;;;26.45;10.63;;;;;;;5.57;100.00;103729.31;5214606;28;20045;-72
2022/01/18 02:53:06;;;;;;;22.45;10.20;;;;;;;5.57;100.00;103718.91;5216038;28;20493;-72
2022/01/18 02:55:37;;;;;;;32.33;10.52;;;;;;;5.63;100.00;103730.94;5216627;28;20112;-72
2022/01/18 02:58:10;;;;;;;33.50;11.93;;;;;;;5.63;100.00;103723.13;5216038;28;20041;-72
2022/01/18 03:03:35;;;;;;;26.20;10.95;;;;;;;5.64;100.00;103722.25;5215740;28;20038;-73
2022/01/18 03:06:07;;;;;;;42.08;12.35;;;;;;;5.60;100.00;103720.56;5214904;28;20029;-72
2022/01/18 03:08:38;;;;;;;33.08;11.85;;;;;;;5.58;100.00;103725.81;5215942;28;20029;-72
2022/01/18 03:11:09;;;;;;;28.40;10.75;;;;;;;5.63;100.00;103730.06;5214693;28;20041;-72
2022/01/18 03:13:40;;;;;;;30.15;10.90;;;;;;;5.64;100.00;103727.44;5216238;28;20084;-72
2022/01/18 03:16:12;;;;;;;28.23;10.80;;;;;;;5.61;100.00;103714.50;5215176;28;20030;-74
2022/01/18 03:18:43;;;;;;;29.83;10.40;;;;;;;5.66;100.00;103724.81;5215922;28;20036;-72
2022/01/18 03:21:14;;;;;;;32.97;11.32;;;;;;;5.65;100.00;103729.19;5214209;28;20033;-72
2022/01/18 03:23:52;;;;;;;25.77;10.95;;;;;;;5.65;100.00;103736.13;5215544;28;20029;-72
2022/01/18 03:26:31;;;;;;;27.27;11.43;;;;;;;5.64;100.00;103739.59;5215875;28;20076;-73
2022/01/18 03:29:03;;;;;;;23.20;9.93;;;;;;;5.64;100.00;103735.25;5215834;28;20125;-73
2022/01/18 03:31:34;;;;;;;29.65;10.85;;;;;;;5.63;100.00;103737.88;5213442;28;20096;-73
2022/01/18 03:34:05;;;;;;;27.02;11.45;;;;;;;5.65;100.00;103741.31;5215607;28;20038;-73
2022/01/18 03:36:36;;;;;;;27.35;12.05;;;;;;;5.63;100.00;103750.88;5215921;28;20026;-73
2022/01/18 03:39:08;;;;;;;35.28;12.00;;;;;;;5.54;100.00;103731.97;5215112;28;20030;-73
2022/01/18 03:41:39;;;;;;;28.88;12.07;;;;;;;5.63;100.00;103740.47;5215598;28;20029;-72
2022/01/18 03:44:10;;;;;;;28.05;11.23;;;;;;;5.64;100.00;103731.78;5214961;28;20034;-72
2022/01/18 03:46:42;;;;;;;27.02;11.95;;;;;;;5.63;100.00;103724.88;5215673;28;20534;-72
2022/01/18 03:49:13;;;;;;;30.42;12.23;;;;;;;5.66;100.00;103732.63;5213129;28;20411;-72
2022/01/18 03:51:44;;;;;;;24.30;11.00;;;;;;;5.65;100.00;103731.78;5215035;28;20021;-72
2022/01/18 03:54:21;;;;;;;24.80;11.27;;;;;;;5.60;100.00;103737.03;5215232;28;20116;-72
2022/01/18 03:56:53;;;;;;;25.23;11.98;;;;;;;5.64;100.00;103750.00;5213977;28;20037;-72
2022/01/18 03:59:24;;;;;;;27.77;11.23;;;;;;;5.63;100.00;103750.88;5215361;28;20403;-72
2022/01/18 04:01:55;;;;;;;25.83;11.20;;;;;;;5.65;100.00;103749.13;5214776;28;20398;-72
2022/01/18 04:04:27;;;;;;;28.13;11.77;;;;;;;5.62;100.00;103752.63;5215201;28;20048;-72
2022/01/18 04:06:59;;;;;;;19.90;11.00;;;;;;;5.57;100.00;103750.13;5212492;28;20121;-72
2022/01/18 04:09:30;;;;;;;25.42;12.23;;;;;;;5.61;100.00;103749.19;5214852;28;20120;-72
2022/01/18 04:12:02;;;;;;;23.98;12.00;;;;;;;5.63;100.00;103758.69;5214599;28;20026;-72
2022/01/18 04:14:34;;;;;;;24.70;11.80;;;;;;;5.64;100.00;103763.00;5212896;28;20506;-72
2022/01/18 04:28:03;;;;;;;24.30;12.02;;;;;;;5.60;100.00;103767.38;5214609;28;20034;-72
2022/01/18 04:30:34;;;;;;;30.48;12.70;;;;;;;5.63;100.00;103769.09;5213872;28;20030;-72
2022/01/18 04:33:05;;;;;;;27.45;12.52;;;;;;;5.64;100.00;103774.25;5214391;28;20479;-72
2022/01/18 04:35:37;;;;;;;22.73;12.70;;;;;;;5.64;100.00;103760.41;5214653;28;20033;-72
2022/01/18 04:38:09;;;;;;;31.92;13.25;;;;;;;5.62;100.00;103757.84;5214218;28;20123;-72
2022/01/18 04:40:44;;;;;;;30.38;11.75;;;;;;;5.66;100.00;103767.28;5213436;28;20034;-72
2022/01/18 04:48:37;;;;;;;29.83;12.98;;;;;;;5.65;100.00;103764.75;5213552;28;20121;-72
2022/01/18 04:51:11;;;;;;;29.52;13.30;;;;;;;5.69;100.00;103769.00;5214007;28;20033;-72
2022/01/18 04:53:51;;;;;;;34.72;13.27;;;;;;;5.69;100.00;103764.66;5214321;28;20049;-72
2022/01/18 04:59:10;;;;;;;30.73;14.57;;;;;;;5.68;100.00;103769.84;5213640;28;20091;-72
2022/01/18 05:01:44;;;;;;;34.08;13.43;;;;;;;5.68;100.00;103769.84;5212481;28;20398;-72
2022/01/18 05:04:16;;;;;;;40.67;13.23;;;;;;;5.66;100.00;103772.50;5213457;28;20406;-72
2022/01/18 05:06:47;;;;;;;34.38;13.57;;;;;;;5.59;100.00;103760.47;5212961;28;20037;-72
2022/01/18 05:09:18;;;;;;;33.58;14.13;;;;;;;5.67;100.00;103770.75;5213668;28;20530;-72
2022/01/18 05:12:12;;;;;;;37.50;14.30;;;;;;;5.65;100.00;103768.19;5213565;28;20033;-72
2022/01/18 05:14:45;;;;;;;36.15;13.20;;;;;;;5.69;100.00;103785.47;5213339;28;20033;-72
2022/01/18 05:20:25;;;;;;;39.42;12.80;;;;;;;5.71;100.00;103772.41;5213919;28;19920;-72
2022/01/18 05:23:00;;;;;;;34.70;13.35;;;;;;;5.71;100.00;103775.88;5212921;28;20041;-73
2022/01/18 05:25:35;;;;;;;35.88;13.90;;;;;;;5.77;100.00;103780.13;5213814;28;20065;-73
2022/01/18 05:28:07;;;;;;;38.75;13.65;;;;;;;5.70;100.00;103783.72;5213398;28;20029;-73
2022/01/18 05:30:39;;;;;;;35.42;12.65;;;;;;;5.70;100.00;103781.97;5213174;28;20049;-73
2022/01/18 05:33:10;;;;;;;39.95;13.30;;;;;;;5.68;100.00;103780.25;5212974;28;20033;-73
2022/01/18 05:35:41;;;;;;;36.08;13.63;;;;;;;5.66;100.00;103784.66;5213585;28;20026;-73
2022/01/18 05:38:13;;;;;;;36.10;14.13;;;;;;;5.66;100.00;103782.91;5213220;28;20029;-73
2022/01/18 05:40:44;;;;;;;40.47;13.52;;;;;;;5.63;100.00;103784.69;5212894;28;20718;-73
2022/01/18 05:43:17;;;;;;;36.95;13.20;;;;;;;5.63;100.00;103784.69;5213425;28;20057;-73
2022/01/18 05:45:48;;;;;;;33.83;11.88;;;;;;;5.67;100.00;103781.16;5212053;28;20041;-73
2022/01/18 05:48:20;;;;;;;34.30;13.55;;;;;;;5.64;100.00;103778.59;5213298;28;20387;-72
2022/01/18 05:50:54;;;;;;;33.83;13.77;;;;;;;5.62;100.00;103773.44;5211620;28;20033;-72
2022/01/18 05:53:26;;;;;;;45.40;13.93;;;;;;;5.62;100.00;103773.44;5211823;28;20022;-72
2022/01/18 05:55:58;;;;;;;42.65;13.18;;;;;;;5.64;100.00;103773.41;5213817;28;20515;-72
2022/01/18 05:58:30;;;;;;;34.03;12.60;;;;;;;5.62;100.00;103770.84;5212941;28;20032;-72
2022/01/18 06:01:01;;;;;;;43.65;13.02;;;;;;;5.61;100.00;103780.38;5211819;28;20034;-72
2022/01/18 06:03:50;;;;;;;38.60;13.07;;;;;;;5.65;100.00;103778.59;5213215;28;20026;-72
2022/01/18 06:09:12;;;;;;;43.55;13.65;;;;;;;5.64;100.00;103769.06;5212755;28;20528;-72
2022/01/18 06:11:43;;;;;;;33.22;13.85;;;;;;;5.65;100.00;103775.13;5213046;28;20087;-72
2022/01/18 06:14:15;;;;;;;35.65;13.52;;;;;;;5.60;100.00;103765.66;5213349;28;20475;-72
2022/01/18 06:16:47;;;;;;;37.70;15.80;;;;;;;5.63;100.00;103769.09;5213349;28;20049;-73
2022/01/18 06:19:18;;;;;;;37.53;14.10;;;;;;;5.66;100.00;103779.44;5217059;28;20116;-72
2022/01/18 06:21:49;;;;;;;31.80;13.80;;;;;;;5.69;100.00;103782.00;5216980;28;20061;-73
2022/01/18 06:24:21;;;;;;;36.17;13.90;;;;;;;5.68;100.00;103778.50;5216763;28;20022;-73
2022/01/18 06:26:52;;;;;;;36.28;14.05;;;;;;;5.73;100.00;103783.66;5215684;28;20060;-72
2022/01/18 06:29:23;;;;;;;39.47;13.95;;;;;;;5.70;100.00;103783.72;5216600;28;20117;-72
2022/01/18 06:31:54;;;;;;;41.10;15.65;;;;;;;5.72;100.00;103780.22;5215678;28;20022;-72
2022/01/18 06:34:26;;;;;;;38.67;14.38;;;;;;;5.73;100.00;103778.47;5216644;28;20495;-72
2022/01/18 06:36:57;;;;;;;38.75;14.60;;;;;;;5.74;100.00;103780.16;5216919;28;20026;-72
2022/01/18 06:39:29;;;;;;;43.22;14.93;;;;;;;5.76;100.00;103775.81;5215090;28;20113;-72
2022/01/18 06:42:00;;;;;;;41.83;15.50;;;;;;;5.66;100.00;103759.50;5215484;28;20033;-71
2022/01/18 06:44:31;;;;;;;41.75;14.70;;;;;;;5.77;100.00;103774.91;5216343;28;20040;-71
2022/01/18 06:47:03;;;;;;;48.78;16.05;;;;;;;5.75;100.00;103776.66;5216669;28;20041;-71
2022/01/18 06:49:34;;;;;;;42.00;15.48;;;;;;;5.75;100.00;103774.06;5214556;28;20034;-71
2022/01/18 06:52:06;;;;;;;39.33;16.15;;;;;;;5.76;100.00;103781.00;5212923;28;20087;-72
2022/01/18 06:54:37;;;;;;;48.28;16.20;;;;;;;5.75;100.00;103784.47;5214988;28;20534;-71
2022/01/18 06:57:08;;;;;;;39.20;16.05;;;;;;;5.75;100.00;103779.28;5215679;28;20100;-71
2022/01/18 06:59:40;;;;;;;41.08;15.32;;;;;;;5.75;100.00;103787.94;5213599;28;20572;-72
2022/01/18 07:02:11;;;;;;;45.90;16.92;;;;;;;5.75;100.00;103790.53;5215236;28;20104;-71
2022/01/18 07:04:42;;;;;;;35.88;15.50;;;;;;;5.77;100.00;103791.38;5214106;28;20037;-71
2022/01/18 07:07:13;;;;;;;36.80;14.98;;;;;;;5.81;100.00;103787.84;5215183;28;20096;-71
2022/01/18 07:09:45;;;;;;;38.72;15.40;;;;;;;5.80;100.00;103790.47;5215837;28;20099;-71
2022/01/18 07:12:18;;;;;;;40.00;15.25;;;;;;;5.75;100.00;103789.69;5215481;28;20033;-72
2022/01/18 07:14:49;;;;;;;39.03;14.87;;;;;;;5.81;100.00;103802.59;5213162;28;20506;-72
2022/01/18 07:17:20;;;;;;;33.72;14.90;;;;;;;5.80;100.00;103801.75;5215492;28;20037;-71
2022/01/18 07:19:51;;;;;;;34.00;16.45;;;;;;;5.81;100.00;103797.38;5209064;28;20036;-71
2022/01/18 07:22:23;;;;;;;38.15;16.70;;;;;;;5.80;100.00;103796.53;5213141;28;20029;-71
2022/01/18 07:24:57;;;;;;;42.35;15.25;;;;;;;5.78;100.00;103795.69;5212645;28;20069;-72
2022/01/18 07:27:28;;;;;;;35.03;15.00;;;;;;;5.76;100.00;103800.09;5212776;28;20068;-71
2022/01/18 07:30:00;;;;;;;37.30;16.00;;;;;;;5.80;100.00;103803.50;5214215;28;20072;-71
2022/01/18 07:32:31;;;;;;;41.38;16.27;;;;;;;5.82;100.00;103809.50;5213927;28;20041;-71
2022/01/18 07:35:03;;;;;;;36.75;15.48;;;;;;;5.82;100.00;103807.75;5215390;28;20033;-71
2022/01/18 07:37:34;;;;;;;31.33;14.60;;;;;;;5.83;100.00;103814.69;5212753;28;20037;-72
2022/01/18 07:40:07;;;;;;;33.97;15.15;;;;;;;5.82;100.00;103806.91;5213330;28;20034;-72
2022/01/18 07:42:38;;;;;;;34.50;15.60;;;;;;;5.82;100.00;103812.09;5214072;28;20447;-71
2022/01/18 07:45:10;;;;;;;30.85;14.95;;;;;;;5.79;100.00;103814.75;5214626;28;20156;-72
2022/01/18 07:47:41;;;;;;;38.33;16.30;;;;;;;5.76;100.00;103800.09;5214524;28;20241;-72
2022/01/18 07:50:12;;;;;;;34.75;15.60;;;;;;;5.78;100.00;103810.44;5213249;28;20410;-73
2022/01/18 07:52:44;;;;;;;37.90;16.33;;;;;;;5.81;100.00;103819.06;5214520;28;20141;-72
2022/01/18 07:55:15;;;;;;;30.65;14.35;;;;;;;5.86;100.00;103821.56;5215207;28;20053;-72
2022/01/18 07:57:46;;;;;;;40.28;16.38;;;;;;;5.83;100.00;103817.31;5214444;28;20529;-72
2022/01/18 08:00:18;;;;;;;37.53;15.65;;;;;;;5.85;100.00;103819.88;5213600;28;20120;-72
2022/01/18 08:02:49;;;;;;;45.83;15.90;;;;;;;5.88;100.00;103818.97;5214043;28;20109;-72
2022/01/18 08:05:21;;;;;;;40.47;16.95;;;;;;;5.84;100.00;103812.97;5213534;28;20068;-72
2022/01/18 08:07:52;;;;;;;41.35;17.40;;;;;;;5.83;100.00;103819.03;5214416;28;20021;-72
2022/01/18 08:10:30;;;;;;;34.78;16.17;;;;;;;5.84;100.00;103820.75;5214623;28;20748;-72
2022/01/18 08:13:03;;;;;;;41.55;16.05;;;;;;;5.80;100.00;103817.34;5212430;28;20026;-72
2022/01/18 08:15:42;;;;;;;42.92;17.40;;;;;;;5.85;100.00;103820.72;5213286;28;20022;-72
2022/01/18 08:18:15;;;;;;;43.42;16.98;;;;;;;5.91;100.00;103830.19;5212796;28;20054;-72
2022/01/18 08:20:46;;;;;;;40.05;17.02;;;;;;;5.92;100.00;103820.63;5212115;28;20028;-72
2022/01/18 08:23:17;;;;;;;53.38;18.75;;;;;;;5.90;100.00;103822.38;5213439;28;20026;-72
2022/01/18 08:25:49;;;;;;;44.22;17.52;;;;;;;5.94;100.00;103816.28;5214042;28;20112;-72
2022/01/18 08:28:20;;;;;;;51.78;18.70;;;;;;;5.95;100.00;103812.81;5213711;28;20510;-72
2022/01/18 08:30:51;;;;;;;53.40;19.10;;;;;;;5.99;100.00;103817.91;5214441;28;20542;-72
2022/01/18 08:33:24;;;;;;;50.83;17.42;;;;;;;6.02;100.00;103819.59;5209625;28;20035;-72
2022/01/18 08:35:55;;;;;;;56.78;19.08;;;;;;;5.99;100.00;103812.72;5212639;28;20060;-72
2022/01/18 08:38:27;;;;;;;56.33;19.23;;;;;;;6.04;100.00;103818.69;5212869;28;20034;-72
2022/01/18 08:41:00;;;;;;;51.63;18.38;;;;;;;6.05;100.00;103811.72;5213508;28;20030;-72
2022/01/18 08:43:33;;;;;;;46.97;17.40;;;;;;;6.04;100.00;103810.88;5213145;28;20931;-72
2022/01/18 08:46:04;;;;;;;53.25;18.35;;;;;;;6.09;100.00;103818.59;5213710;28;20045;-72
2022/01/18 08:48:36;;;;;;;57.45;18.63;;;;;;;6.02;100.00;103807.47;5213002;28;20034;-72
2022/01/18 08:51:08;;;;;;;50.67;18.80;;;;;;;6.13;100.00;103822.00;5211949;28;20185;-72
2022/01/18 08:53:41;;;;;;;53.63;18.70;;;;;;;6.15;100.00;103817.66;5211903;28;20457;-72
2022/01/18 08:56:12;;;;;;;49.88;17.25;;;;;;;6.16;100.00;103822.81;5213857;28;20756;-72
2022/01/18 08:58:45;;;;;;;47.97;17.85;;;;;;;6.20;100.00;103819.25;5211973;28;20022;-72
2022/01/18 09:01:17;;;;;;;57.17;18.48;;;;;;;6.24;100.00;103822.66;5213156;28;20079;-72
2022/01/18 09:03:50;;;;;;;46.75;17.52;;;;;;;6.22;100.00;103830.50;5213802;28;20026;-72
2022/01/18 09:06:23;;;;;;;47.75;19.30;;;;;;;6.17;100.00;103810.66;5212334;28;20446;-72
2022/01/18 09:08:58;;;;;;;44.83;17.45;;;;;;;6.24;100.00;103818.31;5213088;28;20026;-72
2022/01/18 09:11:31;;;;;;;51.38;18.27;;;;;;;6.17;100.00;103805.44;5212530;28;20495;-72
2022/01/18 09:14:02;;;;;;;46.03;18.05;;;;;;;6.32;100.00;103818.16;5212989;28;20045;-72
2022/01/18 09:16:33;;;;;;;53.88;17.85;;;;;;;6.33;100.00;103825.97;5212576;28;20045;-72
2022/01/18 09:19:05;;;;;;;51.88;18.58;;;;;;;6.37;100.00;103831.13;5212741;28;20025;-72
2022/01/18 09:21:36;;;;;;;43.60;17.13;;;;;;;6.33;100.00;103825.97;5212408;28;20026;-72
2022/01/18 09:24:07;;;;;;;40.05;16.15;;;;;;;6.36;100.00;103819.81;5211202;28;20529;-72
2022/01/18 09:26:39;;;;;;;46.35;16.85;;;;;;;6.49;100.00;103831.72;5212952;28;20087;-72
2022/01/18 09:29:11;;;;;;;37.63;16.25;;;;;;;6.49;100.00;103829.13;5212746;28;20017;-72
2022/01/18 09:31:42;;;;;;;39.67;16.57;;;;;;;6.50;100.00;103836.03;5212892;28;20018;-72
2022/01/18 09:34:14;;;;;;;40.33;18.15;;;;;;;6.51;100.00;103835.16;5211091;28;20479;-72
2022/01/18 09:36:45;;;;;;;36.42;16.80;;;;;;;6.58;100.00;103843.69;5211499;28;20039;-72
2022/01/18 09:39:16;;;;;;;34.58;16.63;;;;;;;6.61;100.00;103834.97;5213083;28;20468;-72
2022/01/18 09:41:51;;;;;;;38.35;17.85;;;;;;;6.64;100.00;103835.78;5211830;28;20025;-72
2022/01/18 09:44:23;;;;;;;39.10;16.85;;;;;;;6.66;100.00;103843.53;5211153;28;20026;-72
2022/01/18 09:46:54;;;;;;;47.50;18.40;;;;;;;6.72;100.00;103846.03;5212509;28;20033;-72
2022/01/18 09:49:25;;;;;;;41.47;18.60;;;;;;;6.71;100.00;103842.59;5212926;28;20083;-72
2022/01/18 09:51:57;;;;;;;43.28;17.55;;;;;;;6.78;100.00;103843.28;5212058;28;20060;-71
2022/01/18 09:54:28;;;;;;;39.60;17.98;;;;;;;6.78;100.00;103845.91;5212690;28;20025;-72
2022/01/18 09:56:59;;;;;;;44.78;19.27;;;;;;;6.81;100.00;103851.06;5212333;28;20022;-72
2022/01/18 09:59:32;;;;;;;40.22;18.63;;;;;;;6.85;100.00;103846.63;5211940;28;20030;-72
2022/01/18 10:02:06;;;;;;;37.75;18.17;;;;;;;6.93;100.00;103853.44;5211714;28;20041;-72
2022/01/18 10:04:42;;;;;;;43.53;19.45;;;;;;;7.00;100.00;103848.91;5211880;28;20064;-72
2022/01/18 10:07:14;;;;;;;38.25;17.35;;;;;;;6.96;100.00;103842.91;5211502;28;20172;-72
2022/01/18 10:09:45;;;;;;;39.33;18.40;;;;;;;7.01;100.00;103840.22;5210674;28;20022;-72
2022/01/18 10:12:16;;;;;;;38.47;17.85;;;;;;;7.07;100.00;103840.91;5212920;28;20044;-72
2022/01/18 10:14:56;;;;;;;32.88;16.55;;;;;;;7.16;100.00;103854.63;5210914;28;20022;-73
2022/01/18 10:17:34;;;;;;;31.55;16.38;;;;;;;7.17;100.00;103851.16;5212294;28;20426;-72
2022/01/18 10:20:09;;;;;;;31.95;15.77;;;;;;;7.15;100.00;103850.31;5210697;28;20141;-72
2022/01/18 10:22:42;;;;;;;29.45;15.82;;;;;;;7.08;100.00;103847.00;5210416;28;20034;-72
2022/01/18 10:25:14;;;;;;;;;;;;;;;7.68;100.00;103851.69;5211820;28;20038;-72
2022/01/18 10:27:49;;;;;;;27.48;14.77;;;;;;;7.30;100.00;103842.16;5211001;28;20271;-72
2022/01/18 10:30:35;;;;;;;35.47;16.15;;;;;;;7.29;100.00;103837.84;5212322;28;20525;-72
2022/01/18 10:33:14;;;;;;;34.30;18.33;;;;;;;7.40;100.00;103841.06;5212297;28;20029;-73
2022/01/18 10:36:10;;;;;;;33.03;19.48;;;;;;;7.53;100.00;103833.78;5209897;28;20065;-72
2022/01/18 10:38:47;;;;;;;41.35;20.48;;;;;;;7.35;100.00;103832.50;5211877;28;20034;-72
2022/01/18 10:41:27;;;;;;;41.13;21.85;;;;;;;7.50;100.00;103831.25;5210788;28;21251;-72
2022/01/18 10:44:13;;;;;;;37.15;22.42;;;;;;;7.64;100.00;103838.75;5211167;28;20061;-73
2022/01/18 10:46:52;;;;;;;40.15;22.13;;;;;;;7.69;100.00;103834.25;5211854;28;20040;-72
2022/01/18 10:49:39;;;;;;;43.25;22.23;;;;;;;7.79;100.00;103828.78;5212164;28;20483;-72
2022/01/18 10:52:18;;;;;;;39.35;21.60;;;;;;;7.86;100.00;103823.41;5210041;28;20395;-72
2022/01/18 10:54:54;;;;;;;40.80;21.42;;;;;;;7.96;100.00;103820.53;5210296;28;20033;-72
2022/01/18 10:57:26;;;;;;;37.70;19.15;;;;;;;7.99;100.00;103812.63;5211925;28;20030;-72
2022/01/18 11:00:00;;;;;;;40.37;18.53;;;;;;;8.10;100.00;103807.09;5211383;28;20034;-72
2022/01/18 11:02:34;;;;;;;46.20;19.30;;;;;;;8.10;100.00;103811.47;5211700;28;20124;-72
2022/01/18 11:05:25;;;;;;;37.95;19.35;;;;;;;8.24;100.00;103804.97;5215401;28;20390;-72
2022/01/18 11:08:03;;;;;;;38.38;20.40;;;;;;;8.20;100.00;103807.72;5213500;28;20022;-72
2022/01/18 11:10:39;;;;;;;40.97;18.92;;;;;;;8.18;100.00;103796.44;5214512;28;20037;-72
2022/01/18 11:13:12;;;;;;;32.40;18.23;;;;;;;8.14;100.00;103800.03;5215095;28;20022;-72
2022/01/18 11:15:50;;;;;;;38.17;18.98;;;;;;;8.32;100.00;103798.69;5214017;28;20483;-72
2022/01/18 11:18:25;;;;;;;40.80;18.23;;;;;;;8.31;100.00;103800.44;5214974;28;20121;-72
2022/01/18 11:21:01;;;;;;;38.00;18.15;;;;;;;8.35;100.00;103802.06;5212706;28;20275;-72
2022/01/18 11:23:34;;;;;;;38.03;18.13;;;;;;;8.37;100.00;103809.84;5215001;28;20072;-72
2022/01/18 11:26:06;;;;;;;38.83;17.25;;;;;;;8.44;100.00;103793.13;5213997;28;20030;-72
2022/01/18 11:28:38;;;;;;;39.03;17.60;;;;;;;8.51;100.00;103803.38;5213790;28;20099;-72
2022/01/18 11:31:11;;;;;;;35.85;15.90;;;;;;;8.55;100.00;103805.91;5213081;28;20033;-72
2022/01/18 11:33:54;;;;;;;32.55;15.20;;;;;;;8.64;100.00;103789.97;5215148;28;20018;-72
2022/01/18 11:36:33;;;;;;;35.58;14.98;;;;;;;8.65;100.00;103794.28;5214837;28;20068;-72
2022/01/18 11:39:07;;;;;;;33.42;14.70;;;;;;;8.70;100.00;103787.16;5214784;28;20026;-72
2022/01/18 11:41:39;;;;;;;34.90;13.85;;;;;;;8.70;100.00;103781.94;5213882;28;20045;-72
2022/01/18 11:44:16;;;;;;;28.05;13.70;;;;;;;8.76;100.00;103790.44;5214134;28;20033;-72
2022/01/18 11:46:52;;;;;;;27.48;13.77;;;;;;;8.64;100.00;103777.75;5213798;28;20041;-73
2022/01/18 11:49:30;;;;;;;32.28;13.48;;;;;;;8.53;100.00;103780.69;5211415;28;20026;-72
2022/01/18 11:52:06;;;;;;;28.48;12.65;;;;;;;8.48;100.00;103766.03;5213644;28;20025;-72
2022/01/18 11:55:00;;;;;;;30.58;13.43;;;;;;;8.44;100.00;103736.50;5211222;28;20480;-73
2022/01/18 12:00:22;;;;;;;32.00;13.13;;;;;;;8.59;100.00;103784.84;5759647;23;20189;-72
2022/01/18 12:02:56;;;;;;;30.52;12.65;;;;;;;8.45;100.00;103781.81;5195255;28;20554;-73
2022/01/18 12:05:27;;;;;;;29.75;12.90;;;;;;;8.48;100.00;103781.69;5213804;28;20503;-74
2022/01/18 12:08:01;;;;;;;31.75;13.15;;;;;;;8.52;100.00;103778.09;5212590;28;20034;-74
2022/01/18 12:10:38;;;;;;;29.42;12.38;;;;;;;8.59;100.00;103770.94;5212953;28;20022;-74
2022/01/18 12:13:23;;;;;;;31.02;12.30;;;;;;;8.68;100.00;103768.06;5212505;28;20037;-74
2022/01/18 12:15:57;;;;;;;26.35;12.93;;;;;;;8.57;100.00;103760.53;5213560;28;20049;-73
2022/01/18 12:18:31;;;;;;;27.65;12.93;;;;;;;8.53;100.00;103772.00;5212179;28;20036;-73
2022/01/18 12:21:20;;;;;;;32.75;13.73;;;;;;;8.68;100.00;103768.06;5212093;28;20029;-73
2022/01/18 12:23:51;;;;;;;27.60;13.32;;;;;;;8.45;100.00;103761.75;5212729;28;20507;-75
2022/01/18 12:29:34;;;;;;;26.70;11.80;;;;;;;8.55;100.00;103764.09;5134637;29;20059;-74
2022/01/18 12:32:21;;;;;;;29.40;13.00;;;;;;;8.50;100.00;103757.25;5192177;28;20026;-73
2022/01/18 12:35:00;;;;;;;34.47;13.35;;;;;;;8.47;100.00;103756.47;5193749;28;20022;-73
2022/01/18 12:37:33;;;;;;;29.67;12.68;;;;;;;8.51;100.00;103755.47;5193389;28;20106;-73
2022/01/18 12:40:08;;;;;;;27.25;12.00;;;;;;;8.56;100.00;103760.56;5189640;28;20053;-74
2022/01/18 12:45:16;;;;;;;32.80;12.85;;;;;;;8.62;100.00;103752.56;5183350;28;20359;-74
2022/01/18 12:48:02;;;;;;;27.60;13.35;;;;;;;8.69;100.00;103751.47;5192527;28;20034;-75
2022/01/18 12:50:37;;;;;;;38.83;13.20;;;;;;;8.68;100.00;103747.16;5192150;28;20022;-73
2022/01/18 12:53:18;;;;;;;33.50;12.98;;;;;;;8.67;100.00;103751.50;5192585;28;20345;-73